Time;durP1;ratioP1;P1;durP2;ratioP2;P2;SDS_P1;SDS_P2;PMS_P1;PMS_P2;Temp;Humidity;BMP_temperature;BMP_pressure;BME280_temperature;BME280_humidity;BME280_pressure;Samples;Min_cycle;Max_cycle;Signal;HPM_P1;HPM_P2
2022/10/17 00:01:44;;;;;;;0.30;0.30;;;;;;;;;;1914557;74;26719;-92
2022/10/17 00:04:11;;;;;;;0.37;0.37;;;;;;;;;;1923622;74;26223;-90
2022/10/17 00:06:39;;;;;;;0.28;0.28;;;;;;;;;;1917237;74;26226;-89
2022/10/17 00:09:06;;;;;;;0.20;0.20;;;;;;;;;;1917817;74;26233;-89
2022/10/17 00:11:33;;;;;;;0.30;0.30;;;;;;;;;;1923231;74;26300;-91
2022/10/17 00:14:00;;;;;;;0.20;0.20;;;;;;;;;;1904485;74;26227;-90
2022/10/17 00:16:30;;;;;;;0.20;0.20;;;;;;;;;;1909985;74;26255;-93
2022/10/17 00:18:57;;;;;;;0.25;0.25;;;;;;;;;;1911333;73;26214;-90
2022/10/17 00:21:25;;;;;;;0.20;0.20;;;;;;;;;;1905352;73;26215;-90
2022/10/17 00:23:52;;;;;;;0.10;0.10;;;;;;;;;;1908160;74;26200;-89
2022/10/17 00:26:20;;;;;;;0.20;0.15;;;;;;;;;;1903275;75;26242;-90
2022/10/17 00:28:48;;;;;;;0.10;0.10;;;;;;;;;;1908375;74;26223;-91
2022/10/17 00:31:16;;;;;;;0.30;0.30;;;;;;;;;;1908655;73;26222;-91
2022/10/17 00:33:44;;;;;;;0.30;0.27;;;;;;;;;;1896592;73;27964;-90
2022/10/17 00:36:15;;;;;;;0.28;0.28;;;;;;;;;;1909567;74;26847;-92
2022/10/17 00:38:44;;;;;;;0.30;0.30;;;;;;;;;;1905499;74;26753;-92
2022/10/17 00:41:13;;;;;;;0.28;0.28;;;;;;;;;;1906980;74;26169;-89
2022/10/17 00:43:51;;;;;;;0.80;0.28;;;;;;;;;;1907674;73;26187;-91
2022/10/17 00:46:18;;;;;;;0.40;0.40;;;;;;;;;;1908831;74;26304;-91
2022/10/17 00:48:46;;;;;;;1.35;0.17;;;;;;;;;;1907903;74;26695;-90
2022/10/17 00:51:14;;;;;;;0.20;0.20;;;;;;;;;;1915078;73;26215;-89
2022/10/17 00:53:41;;;;;;;0.13;0.13;;;;;;;;;;1911286;73;26704;-91
2022/10/17 00:56:08;;;;;;;0.30;0.30;;;;;;;;;;1910310;74;26227;-90
2022/10/17 01:01:25;;;;;;;0.25;0.25;;;;;;;;;;1812890;75;26963;-45
2022/10/17 01:03:52;;;;;;;0.20;0.20;;;;;;;;;;1807360;78;26280;-42
2022/10/17 01:06:19;;;;;;;0.30;0.30;;;;;;;;;;1805312;78;26335;-43
2022/10/17 01:08:46;;;;;;;0.30;0.30;;;;;;;;;;1803851;78;26204;-43
2022/10/17 01:11:18;;;;;;;0.20;0.20;;;;;;;;;;1803400;78;27003;-51
2022/10/17 01:13:47;;;;;;;0.33;0.30;;;;;;;;;;1804144;78;26205;-44
2022/10/17 01:16:16;;;;;;;0.03;0.03;;;;;;;;;;1807440;78;26299;-45
2022/10/17 01:18:54;;;;;;;0.20;0.20;;;;;;;;;;1789831;78;26282;-43
2022/10/17 01:21:23;;;;;;;0.25;0.25;;;;;;;;;;1802869;78;26319;-46
2022/10/17 01:24:10;;;;;;;0.10;0.10;;;;;;;;;;1806379;78;26350;-48
2022/10/17 01:26:55;;;;;;;0.23;0.23;;;;;;;;;;1804061;78;26331;-49
2022/10/17 01:29:33;;;;;;;0.20;0.20;;;;;;;;;;1802462;78;26732;-43
2022/10/17 01:32:11;;;;;;;0.10;0.10;;;;;;;;;;1806603;78;26268;-48
2022/10/17 01:34:45;;;;;;;0.10;0.10;;;;;;;;;;1803419;78;26280;-45
2022/10/17 01:37:14;;;;;;;0.20;0.20;;;;;;;;;;1806763;78;26292;-44
2022/10/17 01:39:46;;;;;;;0.10;0.10;;;;;;;;;;1801590;78;27440;-49
2022/10/17 01:42:31;;;;;;;0.20;0.20;;;;;;;;;;1804173;78;26740;-49
2022/10/17 01:45:00;;;;;;;0.20;0.20;;;;;;;;;;1805152;78;26776;-44
2022/10/17 01:47:32;;;;;;;0.10;0.10;;;;;;;;;;1804175;78;26728;-46
2022/10/17 01:50:00;;;;;;;0.30;0.30;;;;;;;;;;1804468;78;26288;-57
2022/10/17 01:52:29;;;;;;;0.20;0.20;;;;;;;;;;1803564;78;26266;-45
2022/10/17 01:54:58;;;;;;;0.13;0.13;;;;;;;;;;1807092;78;26335;-46
2022/10/17 01:57:30;;;;;;;0.20;0.20;;;;;;;;;;1805910;78;26252;-46
2022/10/17 01:59:57;;;;;;;0.20;0.20;;;;;;;;;;1794055;78;26307;-47
2022/10/17 02:02:26;;;;;;;0.37;0.37;;;;;;;;;;1808089;78;26323;-45
2022/10/17 02:04:54;;;;;;;0.10;0.10;;;;;;;;;;1808544;78;26267;-46
2022/10/17 02:07:22;;;;;;;0.20;0.20;;;;;;;;;;1806329;78;26733;-50
2022/10/17 02:09:49;;;;;;;0.30;0.20;;;;;;;;;;1809855;77;26279;-44
2022/10/17 02:12:24;;;;;;;0.30;0.30;;;;;;;;;;1810794;78;26314;-47
2022/10/17 02:14:53;;;;;;;0.10;0.10;;;;;;;;;;1809218;78;26755;-43
2022/10/17 02:17:28;;;;;;;0.47;0.28;;;;;;;;;;1810131;78;26806;-54
2022/10/17 02:20:13;;;;;;;0.20;0.20;;;;;;;;;;1808823;78;26326;-44
2022/10/17 02:22:45;;;;;;;0.42;0.40;;;;;;;;;;1809563;78;27068;-48
2022/10/17 02:25:13;;;;;;;0.30;0.30;;;;;;;;;;1807953;78;26330;-43
2022/10/17 02:27:45;;;;;;;0.23;0.23;;;;;;;;;;1809503;78;26326;-47
2022/10/17 02:30:20;;;;;;;0.42;0.20;;;;;;;;;;1809932;78;26296;-45
2022/10/17 02:32:49;;;;;;;0.30;0.30;;;;;;;;;;1810446;77;26212;-43
2022/10/17 02:35:17;;;;;;;0.30;0.30;;;;;;;;;;1808556;78;26259;-55
2022/10/17 02:37:45;;;;;;;0.13;0.13;;;;;;;;;;1810223;78;26216;-45
2022/10/17 02:40:13;;;;;;;0.40;0.20;;;;;;;;;;1810254;78;26357;-55
2022/10/17 02:42:42;;;;;;;0.30;0.30;;;;;;;;;;1811713;77;26279;-53
2022/10/17 02:45:10;;;;;;;0.40;0.37;;;;;;;;;;1810197;78;26209;-50
2022/10/17 02:47:39;;;;;;;0.30;0.30;;;;;;;;;;1811197;78;26354;-45
2022/10/17 02:50:06;;;;;;;0.40;0.40;;;;;;;;;;1804558;77;26751;-43
2022/10/17 02:52:41;;;;;;;0.20;0.20;;;;;;;;;;1809117;77;26373;-46
2022/10/17 02:55:10;;;;;;;0.20;0.20;;;;;;;;;;1806944;77;26796;-45
2022/10/17 02:57:42;;;;;;;0.33;0.20;;;;;;;;;;1807055;78;26702;-45
2022/10/17 03:00:10;;;;;;;0.30;0.30;;;;;;;;;;1795829;78;26283;-50
2022/10/17 03:02:39;;;;;;;0.20;0.20;;;;;;;;;;1811366;78;27315;-46
2022/10/17 03:05:06;;;;;;;0.40;0.40;;;;;;;;;;1798295;78;26208;-44
2022/10/17 03:07:34;;;;;;;0.10;0.10;;;;;;;;;;1792670;79;26313;-46
2022/10/17 03:10:01;;;;;;;0.10;0.10;;;;;;;;;;1810017;79;26301;-43
2022/10/17 03:12:28;;;;;;;0.23;0.23;;;;;;;;;;1809819;78;26264;-43
2022/10/17 03:14:56;;;;;;;0.30;0.30;;;;;;;;;;1810240;78;26399;-43
2022/10/17 03:17:23;;;;;;;0.35;0.35;;;;;;;;;;1810278;77;26279;-44
2022/10/17 03:19:50;;;;;;;0.10;0.10;;;;;;;;;;1814225;78;26266;-43
2022/10/17 03:22:17;;;;;;;0.20;0.20;;;;;;;;;;1806392;78;26329;-51
2022/10/17 03:24:45;;;;;;;0.30;0.30;;;;;;;;;;1802758;79;26345;-47
2022/10/17 03:27:12;;;;;;;0.20;0.20;;;;;;;;;;1816851;77;26249;-43
2022/10/17 03:29:39;;;;;;;0.20;0.20;;;;;;;;;;1831747;78;26764;-49
2022/10/17 03:32:06;;;;;;;0.10;0.10;;;;;;;;;;1825360;78;26708;-49
2022/10/17 03:34:34;;;;;;;0.20;0.20;;;;;;;;;;1805985;77;26751;-48
2022/10/17 03:37:01;;;;;;;0.20;0.20;;;;;;;;;;1806865;77;27222;-48
2022/10/17 03:39:28;;;;;;;0.30;0.30;;;;;;;;;;1810890;78;26303;-44
2022/10/17 03:41:56;;;;;;;0.47;0.47;;;;;;;;;;1810514;78;26282;-43
2022/10/17 03:44:23;;;;;;;0.20;0.20;;;;;;;;;;1811203;78;26337;-43
2022/10/17 03:46:50;;;;;;;0.10;0.10;;;;;;;;;;1810956;78;26221;-43
2022/10/17 03:49:17;;;;;;;0.30;0.30;;;;;;;;;;1811034;78;26212;-44
2022/10/17 03:51:45;;;;;;;0.40;0.40;;;;;;;;;;1803394;78;26334;-42
2022/10/17 03:54:12;;;;;;;0.25;0.25;;;;;;;;;;1811326;78;26349;-43
2022/10/17 03:56:39;;;;;;;0.37;0.20;;;;;;;;;;1811007;78;26361;-46
2022/10/17 03:59:06;;;;;;;0.20;0.20;;;;;;;;;;1807906;77;26326;-46
2022/10/17 04:01:34;;;;;;;0.20;0.20;;;;;;;;;;1826319;78;26741;-45
2022/10/17 04:04:01;;;;;;;0.30;0.30;;;;;;;;;;1820495;78;26906;-45
2022/10/17 04:06:28;;;;;;;0.23;0.23;;;;;;;;;;1810795;78;26685;-45
2022/10/17 04:08:55;;;;;;;0.20;0.20;;;;;;;;;;1806686;78;26759;-48
2022/10/17 04:11:23;;;;;;;0.30;0.30;;;;;;;;;;1810097;77;26275;-49
2022/10/17 04:13:54;;;;;;;0.30;0.30;;;;;;;;;;1810927;77;26393;-49
2022/10/17 04:16:21;;;;;;;0.20;0.20;;;;;;;;;;1791914;78;26337;-46
2022/10/17 04:18:50;;;;;;;0.13;0.13;;;;;;;;;;1811082;78;26846;-49
2022/10/17 04:21:18;;;;;;;0.30;0.30;;;;;;;;;;1807681;77;26910;-52
2022/10/17 04:23:45;;;;;;;0.20;0.20;;;;;;;;;;1811561;78;26323;-48
2022/10/17 04:26:12;;;;;;;0.20;0.20;;;;;;;;;;1809407;78;26271;-45
2022/10/17 04:28:39;;;;;;;0.35;0.35;;;;;;;;;;1810521;78;26387;-49
2022/10/17 04:31:08;;;;;;;0.10;0.10;;;;;;;;;;1808889;78;26326;-47
2022/10/17 04:33:35;;;;;;;0.23;0.23;;;;;;;;;;1807522;77;26240;-48
2022/10/17 04:36:12;;;;;;;0.20;0.20;;;;;;;;;;1809451;78;26320;-52
2022/10/17 04:38:40;;;;;;;0.20;0.20;;;;;;;;;;1803436;78;26647;-49
2022/10/17 04:41:08;;;;;;;0.20;0.20;;;;;;;;;;1809276;78;26310;-46
2022/10/17 04:43:36;;;;;;;0.20;0.20;;;;;;;;;;1802057;77;26309;-49
2022/10/17 04:46:05;;;;;;;0.30;0.30;;;;;;;;;;1812393;78;26259;-50
2022/10/17 04:48:32;;;;;;;0.20;0.20;;;;;;;;;;1801681;78;26277;-48
2022/10/17 04:51:01;;;;;;;0.10;0.10;;;;;;;;;;1806738;78;26256;-45
2022/10/17 04:53:30;;;;;;;0.20;0.20;;;;;;;;;;1809335;78;26723;-43
2022/10/17 04:55:57;;;;;;;0.20;0.20;;;;;;;;;;1809946;78;27299;-53
2022/10/17 04:58:25;;;;;;;0.08;0.08;;;;;;;;;;1804119;78;26295;-45
2022/10/17 05:00:52;;;;;;;0.20;0.20;;;;;;;;;;1810587;78;26343;-45
2022/10/17 05:03:19;;;;;;;0.20;0.20;;;;;;;;;;1815209;78;26400;-44
2022/10/17 05:05:47;;;;;;;0.20;0.20;;;;;;;;;;1810693;77;26677;-43
2022/10/17 05:08:14;;;;;;;0.20;0.20;;;;;;;;;;1810108;78;26699;-46
2022/10/17 05:10:43;;;;;;;0.20;0.20;;;;;;;;;;1808342;78;26329;-44
2022/10/17 05:13:10;;;;;;;0.75;0.40;;;;;;;;;;1810464;78;27387;-44
2022/10/17 05:15:38;;;;;;;1.65;0.30;;;;;;;;;;1810155;78;26212;-56
2022/10/17 05:18:06;;;;;;;0.72;0.40;;;;;;;;;;1799007;77;26279;-44
2022/10/17 05:20:34;;;;;;;8.03;0.42;;;;;;;;;;1821887;77;26802;-55
2022/10/17 05:23:01;;;;;;;2.67;0.62;;;;;;;;;;1810081;77;26278;-47
2022/10/17 05:25:28;;;;;;;0.57;0.50;;;;;;;;;;1809446;78;26350;-46
2022/10/17 05:27:56;;;;;;;3.05;0.50;;;;;;;;;;1810266;77;26350;-45
2022/10/17 05:30:23;;;;;;;3.33;0.57;;;;;;;;;;1809834;78;26794;-47
2022/10/17 05:32:54;;;;;;;2.58;0.57;;;;;;;;;;1809915;78;26279;-45
2022/10/17 05:35:23;;;;;;;3.65;0.60;;;;;;;;;;1801527;78;26235;-45
2022/10/17 05:37:50;;;;;;;3.37;0.70;;;;;;;;;;1807064;77;26279;-46
2022/10/17 05:40:17;;;;;;;0.60;0.50;;;;;;;;;;1808367;78;26256;-43
2022/10/17 05:42:48;;;;;;;3.12;0.70;;;;;;;;;;1804075;78;26282;-43
2022/10/17 05:45:15;;;;;;;0.68;0.47;;;;;;;;;;1821907;77;26688;-47
2022/10/17 05:47:42;;;;;;;1.00;0.40;;;;;;;;;;1822493;77;26255;-54
2022/10/17 05:50:10;;;;;;;0.78;0.37;;;;;;;;;;1820053;77;26263;-47
2022/10/17 05:52:38;;;;;;;1.85;0.57;;;;;;;;;;1811281;78;26308;-43
2022/10/17 05:55:05;;;;;;;1.50;0.50;;;;;;;;;;1809369;78;26759;-53
2022/10/17 05:57:33;;;;;;;1.32;0.50;;;;;;;;;;1808824;78;26307;-50
2022/10/17 06:00:00;;;;;;;0.60;0.47;;;;;;;;;;1807845;77;26344;-46
2022/10/17 06:02:27;;;;;;;1.95;0.55;;;;;;;;;;1809473;78;26275;-45
2022/10/17 06:04:55;;;;;;;1.10;0.60;;;;;;;;;;1810257;78;26393;-45
2022/10/17 06:07:22;;;;;;;1.98;0.40;;;;;;;;;;1809466;77;26298;-50
2022/10/17 06:09:49;;;;;;;2.77;0.55;;;;;;;;;;1808552;78;26200;-45
2022/10/17 06:12:16;;;;;;;0.98;0.60;;;;;;;;;;1807677;77;26682;-53
2022/10/17 06:14:44;;;;;;;2.45;0.60;;;;;;;;;;1809855;78;26747;-44
2022/10/17 06:17:11;;;;;;;2.77;0.68;;;;;;;;;;1809588;78;26677;-50
2022/10/17 06:19:40;;;;;;;2.92;0.70;;;;;;;;;;1812800;78;26243;-48
2022/10/17 06:22:07;;;;;;;1.50;0.57;;;;;;;;;;1810436;77;26755;-45
2022/10/17 06:24:35;;;;;;;1.87;0.68;;;;;;;;;;1809511;78;26243;-45
2022/10/17 06:27:02;;;;;;;3.40;0.70;;;;;;;;;;1805928;78;26635;-46
2022/10/17 06:29:29;;;;;;;1.60;0.60;;;;;;;;;;1808530;78;26748;-44
2022/10/17 06:31:56;;;;;;;1.72;0.70;;;;;;;;;;1809986;78;26946;-48
2022/10/17 06:34:24;;;;;;;1.42;0.50;;;;;;;;;;1807746;77;26829;-46
2022/10/17 06:36:52;;;;;;;1.85;0.55;;;;;;;;;;1812029;77;26697;-47
2022/10/17 06:39:20;;;;;;;1.52;0.60;;;;;;;;;;1808636;78;26315;-55
2022/10/17 06:41:47;;;;;;;0.78;0.50;;;;;;;;;;1808480;78;26491;-49
2022/10/17 06:44:15;;;;;;;1.37;0.42;;;;;;;;;;1804210;77;26287;-45
2022/10/17 06:46:42;;;;;;;3.17;0.55;;;;;;;;;;1809137;78;26329;-53
2022/10/17 06:49:10;;;;;;;4.08;0.60;;;;;;;;;;1809175;78;26284;-45
2022/10/17 06:51:37;;;;;;;1.85;0.40;;;;;;;;;;1805899;78;26595;-56
2022/10/17 06:54:04;;;;;;;0.90;0.45;;;;;;;;;;1809286;78;26248;-50
2022/10/17 06:56:32;;;;;;;0.55;0.45;;;;;;;;;;1809700;77;26255;-53
2022/10/17 06:58:59;;;;;;;0.30;0.30;;;;;;;;;;1778499;79;27144;-57
2022/10/17 07:01:27;;;;;;;0.62;0.53;;;;;;;;;;1817234;77;26260;-49
2022/10/17 07:03:54;;;;;;;0.42;0.42;;;;;;;;;;1803458;77;26319;-46
2022/10/17 07:06:23;;;;;;;0.98;0.47;;;;;;;;;;1783612;78;26263;-45
2022/10/17 07:08:51;;;;;;;0.60;0.53;;;;;;;;;;1797075;79;26272;-47
2022/10/17 07:11:19;;;;;;;0.78;0.40;;;;;;;;;;1797601;78;26295;-50
2022/10/17 07:13:47;;;;;;;0.42;0.40;;;;;;;;;;1798712;78;26296;-45
2022/10/17 07:16:15;;;;;;;1.55;0.47;;;;;;;;;;1791833;78;26346;-47
2022/10/17 07:18:42;;;;;;;0.50;0.50;;;;;;;;;;1797696;78;26298;-52
2022/10/17 07:21:09;;;;;;;1.00;0.47;;;;;;;;;;1804738;78;26288;-45
2022/10/17 07:23:38;;;;;;;0.40;0.40;;;;;;;;;;1807209;78;27417;-45
2022/10/17 07:26:07;;;;;;;0.95;0.50;;;;;;;;;;1808011;78;26233;-46
2022/10/17 07:28:35;;;;;;;0.72;0.50;;;;;;;;;;1794192;78;26256;-45
2022/10/17 07:31:04;;;;;;;0.60;0.33;;;;;;;;;;1794856;79;26252;-46
2022/10/17 07:33:31;;;;;;;0.33;0.25;;;;;;;;;;1790615;79;26245;-51
2022/10/17 07:35:59;;;;;;;0.50;0.23;;;;;;;;;;1798372;79;26272;-49
2022/10/17 07:38:27;;;;;;;1.55;0.50;;;;;;;;;;1800810;78;26277;-44
2022/10/17 07:40:55;;;;;;;3.45;0.40;;;;;;;;;;1813810;78;26275;-44
2022/10/17 07:43:24;;;;;;;1.80;0.40;;;;;;;;;;1777055;78;26349;-46
2022/10/17 07:45:51;;;;;;;3.02;0.50;;;;;;;;;;1793004;79;26333;-53
2022/10/17 07:48:19;;;;;;;0.55;0.30;;;;;;;;;;1803834;79;26283;-46
2022/10/17 07:50:47;;;;;;;1.82;0.40;;;;;;;;;;1802519;78;26373;-43
2022/10/17 07:53:14;;;;;;;0.30;0.30;;;;;;;;;;1801347;78;26353;-53
2022/10/17 07:55:43;;;;;;;0.47;0.30;;;;;;;;;;1801190;78;26303;-46
2022/10/17 07:58:10;;;;;;;0.50;0.40;;;;;;;;;;1799041;78;26299;-48
2022/10/17 08:00:38;;;;;;;0.50;0.40;;;;;;;;;;1778138;78;26530;-48
2022/10/17 08:03:05;;;;;;;1.27;0.55;;;;;;;;;;1801516;78;26339;-45
2022/10/17 08:05:33;;;;;;;0.55;0.40;;;;;;;;;;1803180;78;26775;-49
2022/10/17 08:08:00;;;;;;;0.68;0.33;;;;;;;;;;1801340;78;26298;-47
2022/10/17 08:10:28;;;;;;;0.40;0.30;;;;;;;;;;1796785;79;26267;-49
2022/10/17 08:12:56;;;;;;;0.30;0.30;;;;;;;;;;1785878;78;26256;-46
2022/10/17 08:15:25;;;;;;;0.42;0.42;;;;;;;;;;1804220;78;26836;-43
2022/10/17 08:17:54;;;;;;;0.57;0.40;;;;;;;;;;1803799;78;26788;-46
2022/10/17 08:20:21;;;;;;;0.33;0.33;;;;;;;;;;1804072;78;26334;-44
2022/10/17 08:22:52;;;;;;;0.37;0.37;;;;;;;;;;1802138;78;27019;-46
2022/10/17 08:25:20;;;;;;;1.00;0.57;;;;;;;;;;1803056;78;26276;-47
2022/10/17 08:27:47;;;;;;;0.40;0.40;;;;;;;;;;1799246;78;26758;-44
2022/10/17 08:30:15;;;;;;;0.28;0.28;;;;;;;;;;1797411;78;26353;-51
2022/10/17 08:32:42;;;;;;;2.20;0.40;;;;;;;;;;1797738;78;26239;-44
2022/10/17 08:35:10;;;;;;;0.68;0.50;;;;;;;;;;1800984;78;26244;-46
2022/10/17 08:37:37;;;;;;;0.45;0.40;;;;;;;;;;1799771;78;26248;-47
2022/10/17 08:40:04;;;;;;;0.42;0.40;;;;;;;;;;1797809;78;26326;-51
2022/10/17 08:42:33;;;;;;;0.23;0.23;;;;;;;;;;1799779;78;26248;-50
2022/10/17 08:45:13;;;;;;;0.30;0.30;;;;;;;;;;1793204;78;26764;-44
2022/10/17 08:47:42;;;;;;;0.30;0.30;;;;;;;;;;1792211;78;27352;-46
2022/10/17 08:50:14;;;;;;;0.45;0.45;;;;;;;;;;1795605;78;26318;-50
2022/10/17 08:52:43;;;;;;;0.88;0.23;;;;;;;;;;1803890;78;26272;-54
2022/10/17 08:55:15;;;;;;;0.42;0.20;;;;;;;;;;1799354;78;26347;-46
2022/10/17 08:57:42;;;;;;;0.30;0.30;;;;;;;;;;1798881;78;26341;-48
2022/10/17 09:00:14;;;;;;;0.33;0.33;;;;;;;;;;1779931;79;26351;-50
2022/10/17 09:02:46;;;;;;;0.35;0.35;;;;;;;;;;1769576;78;26369;-47
2022/10/17 09:05:21;;;;;;;0.40;0.40;;;;;;;;;;1797757;78;26289;-48
2022/10/17 09:07:49;;;;;;;0.30;0.30;;;;;;;;;;1794373;78;26267;-47
2022/10/17 09:10:30;;;;;;;0.23;0.23;;;;;;;;;;1805262;78;26317;-47
2022/10/17 09:13:11;;;;;;;0.30;0.30;;;;;;;;;;1803671;78;26267;-49
2022/10/17 09:15:56;;;;;;;0.30;0.30;;;;;;;;;;1787557;78;26262;-50
2022/10/17 09:18:30;;;;;;;2.25;0.47;;;;;;;;;;1790112;77;26283;-47
2022/10/17 09:20:59;;;;;;;0.30;0.30;;;;;;;;;;1803735;78;26275;-45
2022/10/17 09:23:27;;;;;;;0.40;0.40;;;;;;;;;;1795407;78;26335;-47
2022/10/17 09:25:56;;;;;;;0.40;0.40;;;;;;;;;;1809444;78;26275;-47
2022/10/17 09:28:36;;;;;;;0.30;0.30;;;;;;;;;;1813066;77;26324;-50
2022/10/17 09:31:08;;;;;;;0.40;0.40;;;;;;;;;;1816628;78;26352;-50
2022/10/17 09:33:39;;;;;;;0.37;0.37;;;;;;;;;;1819962;77;26333;-45
2022/10/17 09:36:11;;;;;;;0.40;0.40;;;;;;;;;;1801569;78;26752;-50
2022/10/17 09:38:40;;;;;;;0.30;0.30;;;;;;;;;;1803723;78;26263;-45
2022/10/17 09:41:09;;;;;;;0.40;0.40;;;;;;;;;;1803096;77;26322;-48
2022/10/17 09:43:38;;;;;;;0.40;0.40;;;;;;;;;;1789121;78;26369;-47
2022/10/17 09:46:07;;;;;;;0.25;0.25;;;;;;;;;;1810435;78;26323;-55
2022/10/17 09:48:39;;;;;;;0.30;0.30;;;;;;;;;;1809346;78;26247;-52
2022/10/17 09:51:07;;;;;;;0.65;0.40;;;;;;;;;;1809214;77;26546;-51
2022/10/17 09:53:36;;;;;;;0.30;0.30;;;;;;;;;;1818185;78;26276;-51
2022/10/17 09:56:05;;;;;;;0.40;0.30;;;;;;;;;;1837999;78;26343;-49
2022/10/17 09:58:42;;;;;;;0.30;0.30;;;;;;;;;;1814178;77;26624;-51
2022/10/17 10:01:17;;;;;;;0.30;0.30;;;;;;;;;;1810126;78;27661;-50
2022/10/17 10:03:45;;;;;;;0.35;0.35;;;;;;;;;;1807386;78;26423;-52
2022/10/17 10:06:17;;;;;;;0.40;0.40;;;;;;;;;;1822254;77;26392;-52
2022/10/17 10:08:54;;;;;;;0.50;0.50;;;;;;;;;;1826399;77;26283;-45
2022/10/17 10:11:26;;;;;;;0.30;0.30;;;;;;;;;;1814956;79;26411;-47
2022/10/17 10:13:53;;;;;;;0.20;0.20;;;;;;;;;;1814502;77;26265;-47
2022/10/17 10:16:23;;;;;;;0.40;0.40;;;;;;;;;;1811876;78;26652;-47
2022/10/17 10:18:51;;;;;;;0.30;0.30;;;;;;;;;;1791885;78;26377;-49
2022/10/17 10:21:19;;;;;;;0.30;0.30;;;;;;;;;;1812800;78;26776;-52
2022/10/17 10:24:00;;;;;;;0.30;0.30;;;;;;;;;;1805929;77;26334;-51
2022/10/17 10:26:29;;;;;;;0.50;0.50;;;;;;;;;;1817454;78;26697;-49
2022/10/17 10:28:58;;;;;;;0.33;0.33;;;;;;;;;;1813168;77;26267;-43
2022/10/17 10:31:26;;;;;;;0.75;0.40;;;;;;;;;;1824702;78;26342;-47
2022/10/17 10:33:54;;;;;;;0.60;0.42;;;;;;;;;;1813444;78;26292;-42
2022/10/17 10:36:22;;;;;;;0.30;0.30;;;;;;;;;;1810556;77;26319;-47
2022/10/17 10:38:54;;;;;;;0.35;0.35;;;;;;;;;;1813571;78;26216;-45
2022/10/17 10:41:22;;;;;;;0.47;0.40;;;;;;;;;;1829386;78;26333;-43
2022/10/17 10:43:49;;;;;;;2.83;0.37;;;;;;;;;;1813383;78;27521;-45
2022/10/17 10:46:21;;;;;;;0.25;0.25;;;;;;;;;;1812885;77;26220;-51
2022/10/17 10:48:57;;;;;;;0.40;0.40;;;;;;;;;;1811016;78;26270;-44
2022/10/17 10:51:26;;;;;;;0.40;0.40;;;;;;;;;;1817993;78;26295;-49
2022/10/17 10:54:01;;;;;;;0.30;0.30;;;;;;;;;;1810489;78;26303;-47
2022/10/17 10:56:29;;;;;;;0.30;0.30;;;;;;;;;;1809263;77;26667;-46
2022/10/17 10:59:10;;;;;;;0.57;0.30;;;;;;;;;;1809254;77;26807;-49
2022/10/17 11:01:51;;;;;;;1.02;0.55;;;;;;;;;;1813434;77;26345;-48
2022/10/17 11:04:23;;;;;;;0.30;0.30;;;;;;;;;;1813505;77;26827;-50
2022/10/17 11:06:52;;;;;;;0.30;0.30;;;;;;;;;;1816352;78;26616;-45
2022/10/17 11:09:23;;;;;;;0.20;0.20;;;;;;;;;;1810326;77;26266;-46
2022/10/17 11:11:52;;;;;;;0.40;0.30;;;;;;;;;;1810874;77;26685;-44
2022/10/17 11:14:33;;;;;;;0.65;0.30;;;;;;;;;;1810295;78;26786;-45
2022/10/17 11:17:02;;;;;;;0.33;0.33;;;;;;;;;;1810482;78;26349;-48
2022/10/17 11:19:31;;;;;;;0.17;0.17;;;;;;;;;;1797155;77;26276;-67
2022/10/17 11:22:00;;;;;;;0.33;0.33;;;;;;;;;;1809265;78;26287;-53
2022/10/17 11:24:45;;;;;;;0.30;0.20;;;;;;;;;;1808418;78;26330;-50
2022/10/17 11:27:14;;;;;;;0.30;0.30;;;;;;;;;;1818042;77;26331;-52
2022/10/17 11:29:42;;;;;;;0.35;0.35;;;;;;;;;;1808608;77;26259;-48
2022/10/17 11:32:17;;;;;;;0.35;0.30;;;;;;;;;;1809884;78;26649;-43
2022/10/17 11:34:45;;;;;;;2.62;0.50;;;;;;;;;;1769569;78;26263;-49
2022/10/17 11:37:17;;;;;;;5.85;0.60;;;;;;;;;;1807051;78;26330;-49
2022/10/17 11:39:48;;;;;;;0.53;0.33;;;;;;;;;;1799534;78;26288;-48
2022/10/17 11:42:16;;;;;;;0.37;0.37;;;;;;;;;;1803229;77;26345;-42
2022/10/17 11:44:43;;;;;;;2.10;0.47;;;;;;;;;;1808693;78;26212;-46
2022/10/17 11:47:12;;;;;;;0.60;0.60;;;;;;;;;;1810094;78;26291;-56
2022/10/17 11:49:47;;;;;;;0.28;0.28;;;;;;;;;;1810713;78;26284;-51
2022/10/17 11:52:18;;;;;;;0.95;0.35;;;;;;;;;;1807267;78;26326;-44
2022/10/17 11:54:47;;;;;;;0.60;0.30;;;;;;;;;;1808837;78;26217;-57
2022/10/17 11:57:19;;;;;;;3.02;0.30;;;;;;;;;;1805251;78;26731;-44
2022/10/17 11:59:57;;;;;;;0.25;0.25;;;;;;;;;;1813130;77;26706;-56
2022/10/17 12:02:32;;;;;;;1.35;0.30;;;;;;;;;;1808056;77;26389;-50
2022/10/17 12:05:05;;;;;;;0.93;0.30;;;;;;;;;;1793643;77;26333;-53
2022/10/17 12:07:37;;;;;;;1.27;0.40;;;;;;;;;;1828682;77;26302;-56
2022/10/17 12:10:18;;;;;;;0.35;0.35;;;;;;;;;;1809313;78;26682;-47
2022/10/17 12:12:47;;;;;;;0.30;0.30;;;;;;;;;;1810405;78;26260;-53
2022/10/17 12:15:25;;;;;;;3.62;0.33;;;;;;;;;;1816342;77;26292;-53
2022/10/17 12:17:57;;;;;;;0.42;0.30;;;;;;;;;;1808752;77;26275;-45
2022/10/17 12:20:26;;;;;;;0.30;0.28;;;;;;;;;;1810397;78;26295;-50
2022/10/17 12:22:55;;;;;;;1.35;0.28;;;;;;;;;;1811996;78;26335;-45
2022/10/17 12:25:25;;;;;;;0.20;0.20;;;;;;;;;;1815141;77;26314;-46
2022/10/17 12:27:53;;;;;;;0.30;0.30;;;;;;;;;;1798119;78;26357;-45
2022/10/17 12:30:25;;;;;;;1.00;0.60;;;;;;;;;;1811974;78;26216;-42
2022/10/17 12:33:04;;;;;;;0.23;0.23;;;;;;;;;;1806691;78;26275;-50
2022/10/17 12:35:33;;;;;;;0.10;0.10;;;;;;;;;;1806629;77;26287;-41
2022/10/17 12:38:02;;;;;;;0.45;0.30;;;;;;;;;;1810481;78;26433;-44
2022/10/17 12:40:37;;;;;;;0.30;0.30;;;;;;;;;;1807743;77;26307;-47
2022/10/17 12:43:15;;;;;;;0.30;0.30;;;;;;;;;;1811154;78;26287;-48
2022/10/17 12:45:46;;;;;;;1.12;0.17;;;;;;;;;;1810484;78;26213;-44
2022/10/17 12:48:34;;;;;;;1.10;0.37;;;;;;;;;;1807170;77;26326;-49
2022/10/17 12:51:18;;;;;;;0.30;0.30;;;;;;;;;;1804209;78;26745;-46
2022/10/17 12:53:53;;;;;;;0.82;0.30;;;;;;;;;;1806864;78;26333;-46
2022/10/17 12:56:21;;;;;;;1.15;0.20;;;;;;;;;;1810257;78;26220;-47
2022/10/17 12:58:49;;;;;;;0.95;0.40;;;;;;;;;;1809506;77;26302;-44
2022/10/17 13:01:18;;;;;;;0.25;0.25;;;;;;;;;;1807324;78;26245;-47
2022/10/17 13:03:47;;;;;;;0.62;0.10;;;;;;;;;;1807208;78;26360;-51
2022/10/17 13:06:16;;;;;;;0.25;0.23;;;;;;;;;;1809193;78;26322;-47
2022/10/17 13:08:44;;;;;;;0.42;0.42;;;;;;;;;;1818159;77;26318;-55
2022/10/17 13:11:13;;;;;;;0.20;0.20;;;;;;;;;;1805127;78;26301;-49
2022/10/17 13:13:48;;;;;;;0.30;0.25;;;;;;;;;;1808663;78;26272;-52
2022/10/17 13:16:22;;;;;;;0.20;0.20;;;;;;;;;;1808764;78;26228;-52
2022/10/17 13:18:51;;;;;;;0.30;0.30;;;;;;;;;;1779677;79;26685;-44
2022/10/17 13:21:18;;;;;;;0.37;0.37;;;;;;;;;;1809480;77;26267;-44
2022/10/17 13:23:48;;;;;;;0.40;0.30;;;;;;;;;;1810466;78;26342;-45
2022/10/17 13:26:18;;;;;;;0.37;0.37;;;;;;;;;;1810133;78;26413;-49
2022/10/17 13:28:45;;;;;;;0.25;0.25;;;;;;;;;;1809613;77;26911;-49
2022/10/17 13:31:23;;;;;;;0.30;0.30;;;;;;;;;;1801346;77;26215;-49
2022/10/17 13:33:52;;;;;;;0.62;0.62;;;;;;;;;;1775952;78;27455;-45
2022/10/17 13:36:19;;;;;;;0.68;0.25;;;;;;;;;;1792770;78;26374;-46
2022/10/17 13:38:47;;;;;;;0.40;0.20;;;;;;;;;;1810460;78;26263;-43
2022/10/17 13:41:16;;;;;;;0.45;0.40;;;;;;;;;;1809145;77;26752;-48
2022/10/17 13:43:43;;;;;;;0.33;0.33;;;;;;;;;;1809405;78;26355;-42
2022/10/17 13:46:18;;;;;;;0.37;0.37;;;;;;;;;;1809051;78;26369;-44
2022/10/17 13:48:45;;;;;;;0.40;0.40;;;;;;;;;;1809993;78;26333;-42
2022/10/17 13:51:13;;;;;;;0.40;0.40;;;;;;;;;;1810665;78;26315;-43
2022/10/17 13:53:42;;;;;;;0.45;0.45;;;;;;;;;;1809891;78;26792;-45
2022/10/17 13:56:13;;;;;;;2.12;0.40;;;;;;;;;;1820422;78;26801;-44
2022/10/17 13:58:42;;;;;;;0.30;0.30;;;;;;;;;;1809900;78;26260;-48
2022/10/17 14:01:11;;;;;;;0.30;0.30;;;;;;;;;;1809653;78;26347;-42
2022/10/17 14:03:40;;;;;;;0.82;0.42;;;;;;;;;;1815306;77;26263;-55
2022/10/17 14:06:12;;;;;;;0.42;0.42;;;;;;;;;;1809604;78;26268;-46
2022/10/17 14:08:41;;;;;;;1.95;0.68;;;;;;;;;;1817750;77;26314;-50
2022/10/17 14:11:26;;;;;;;1.55;0.40;;;;;;;;;;1819375;77;26403;-49
2022/10/17 14:13:54;;;;;;;0.45;0.45;;;;;;;;;;1815746;77;27564;-46
2022/10/17 14:16:23;;;;;;;0.40;0.40;;;;;;;;;;1809600;77;26240;-43
2022/10/17 14:18:51;;;;;;;0.40;0.40;;;;;;;;;;1811000;78;26393;-43
2022/10/17 14:21:20;;;;;;;1.40;0.50;;;;;;;;;;1812205;78;26363;-45
2022/10/17 14:23:48;;;;;;;0.50;0.50;;;;;;;;;;1799024;78;26350;-46
2022/10/17 14:26:20;;;;;;;2.15;0.60;;;;;;;;;;1818011;77;26724;-45
2022/10/17 14:28:49;;;;;;;2.80;0.40;;;;;;;;;;1810969;78;26295;-43
2022/10/17 14:31:20;;;;;;;1.70;0.80;;;;;;;;;;1808266;78;26872;-44
2022/10/17 14:33:49;;;;;;;0.55;0.55;;;;;;;;;;1808416;78;26789;-47
2022/10/17 14:36:16;;;;;;;0.60;0.60;;;;;;;;;;1818157;77;26217;-47
2022/10/17 14:38:48;;;;;;;1.25;0.70;;;;;;;;;;1807089;77;26779;-47
2022/10/17 14:41:17;;;;;;;1.65;0.60;;;;;;;;;;1807786;78;27724;-46
2022/10/17 14:43:45;;;;;;;0.50;0.50;;;;;;;;;;1809774;78;26299;-47
2022/10/17 14:46:15;;;;;;;0.57;0.57;;;;;;;;;;1809943;78;26350;-51
2022/10/17 14:48:43;;;;;;;1.98;0.70;;;;;;;;;;1803191;77;26296;-47
2022/10/17 14:51:15;;;;;;;2.12;0.62;;;;;;;;;;1807665;78;27380;-46
2022/10/17 14:53:43;;;;;;;1.60;0.68;;;;;;;;;;1807757;78;26216;-52
2022/10/17 14:56:21;;;;;;;1.15;0.60;;;;;;;;;;1813466;78;27151;-45
2022/10/17 14:58:48;;;;;;;0.98;0.70;;;;;;;;;;1808946;77;26388;-49
2022/10/17 15:01:16;;;;;;;0.50;0.50;;;;;;;;;;1804562;78;26260;-44